Time;durP1;ratioP1;P1;durP2;ratioP2;P2;SDS_P1;SDS_P2;PMS_P1;PMS_P2;Temp;Humidity;BMP_temperature;BMP_pressure;BME280_temperature;BME280_humidity;BME280_pressure;Samples;Min_cycle;Max_cycle;Signal;HPM_P1;HPM_P2
2021/10/30 00:00:21;;;;;;;24.35;15.98;;;;;;;11.40;71.51;101941.62;1818749;77;21085;-68
2021/10/30 00:02:48;;;;;;;27.30;18.00;;;;;;;11.40;71.55;101939.47;1801764;77;21039;-68
2021/10/30 00:05:15;;;;;;;27.15;19.32;;;;;;;11.34;71.58;101936.36;1808444;77;21070;-68
2021/10/30 00:07:43;;;;;;;26.77;19.32;;;;;;;11.33;71.67;101940.91;1815703;77;21003;-68
2021/10/30 00:10:12;;;;;;;26.65;19.75;;;;;;;11.35;71.75;101936.65;1813125;78;21050;-70
2021/10/30 00:12:39;;;;;;;25.72;17.52;;;;;;;11.35;71.74;101936.16;1814080;77;21027;-68
2021/10/30 00:15:08;;;;;;;31.23;18.85;;;;;;;11.33;71.83;101936.89;1825231;78;21140;-68
2021/10/30 00:17:35;;;;;;;29.35;18.90;;;;;;;11.33;71.92;101938.23;1824499;78;21473;-68
2021/10/30 00:20:02;;;;;;;30.45;20.77;;;;;;;11.35;71.92;101938.83;1826496;75;20920;-68
2021/10/30 00:22:29;;;;;;;30.10;18.67;;;;;;;11.39;71.87;101933.31;1803641;78;21003;-68
2021/10/30 00:24:56;;;;;;;30.65;20.52;;;;;;;11.42;71.84;101934.19;1847287;75;20983;-68
2021/10/30 00:27:23;;;;;;;31.23;21.23;;;;;;;11.44;71.83;101932.08;1822280;76;21131;-68
2021/10/30 00:29:50;;;;;;;31.80;21.35;;;;;;;11.45;71.77;101929.72;1825188;78;21089;-68
2021/10/30 00:32:17;;;;;;;28.35;19.60;;;;;;;11.46;71.78;101929.20;1823898;76;21065;-68
2021/10/30 00:34:43;;;;;;;31.70;19.90;;;;;;;11.47;71.73;101928.95;1817699;78;20998;-68
2021/10/30 00:37:10;;;;;;;30.70;21.45;;;;;;;11.49;71.70;101931.41;1835246;76;21501;-69
2021/10/30 00:39:38;;;;;;;27.27;19.15;;;;;;;11.49;71.67;101928.21;1833440;76;21600;-68
2021/10/30 00:42:07;;;;;;;31.25;21.70;;;;;;;11.49;71.63;101925.53;1833936;78;21074;-68
2021/10/30 00:44:34;;;;;;;32.20;20.92;;;;;;;11.46;71.60;101925.99;1832251;76;21041;-68
2021/10/30 00:47:01;;;;;;;33.78;22.45;;;;;;;11.47;71.60;101926.80;1832549;76;21018;-68
2021/10/30 00:49:28;;;;;;;32.13;21.65;;;;;;;11.46;71.58;101928.67;1842136;75;20979;-68
2021/10/30 00:51:56;;;;;;;31.75;21.70;;;;;;;11.46;71.57;101925.99;1827942;77;22360;-68
2021/10/30 00:54:25;;;;;;;31.42;20.72;;;;;;;11.46;71.55;101932.68;1831014;76;21057;-68
2021/10/30 00:56:54;;;;;;;32.70;20.08;;;;;;;11.45;71.50;101930.22;1829331;76;21604;-67
2021/10/30 00:59:21;;;;;;;32.17;20.57;;;;;;;11.44;71.46;101928.07;1792015;78;21500;-68
2021/10/30 01:01:49;;;;;;;31.82;20.95;;;;;;;11.47;71.32;101929.48;1827529;76;21122;-69
2021/10/30 01:04:17;;;;;;;33.75;21.57;;;;;;;11.49;71.28;101928.21;1812344;76;20921;-67
2021/10/30 01:06:47;;;;;;;26.87;18.50;;;;;;;11.47;71.31;101925.47;1808387;76;21426;-68
2021/10/30 01:09:14;;;;;;;26.68;19.62;;;;;;;11.45;71.30;101926.20;1820750;76;21711;-68
2021/10/30 01:11:41;;;;;;;30.32;20.32;;;;;;;11.41;71.26;101924.52;1832891;76;21154;-68
2021/10/30 01:14:10;;;;;;;32.95;20.75;;;;;;;11.38;71.28;101922.29;1830728;76;21015;-66
2021/10/30 01:16:40;;;;;;;32.10;21.33;;;;;;;11.37;71.32;101922.53;1826024;76;21145;-67
2021/10/30 01:19:06;;;;;;;31.77;20.97;;;;;;;11.36;71.35;101922.25;1809773;76;20956;-69
2021/10/30 01:21:37;;;;;;;36.75;22.25;;;;;;;11.37;71.34;101925.20;1814871;76;21073;-69
2021/10/30 01:24:06;;;;;;;32.83;20.57;;;;;;;11.36;71.28;101926.27;1831936;76;21056;-69
2021/10/30 01:26:34;;;;;;;30.25;19.77;;;;;;;11.33;71.30;101921.37;1824165;76;21007;-67
2021/10/30 01:29:02;;;;;;;35.70;21.65;;;;;;;11.31;71.30;101916.75;1816278;76;21183;-68
2021/10/30 01:31:29;;;;;;;35.10;22.00;;;;;;;11.25;71.36;101921.99;1826806;76;21049;-68
2021/10/30 01:33:56;;;;;;;30.68;19.23;;;;;;;11.22;71.50;101926.45;1832491;78;21410;-68
2021/10/30 01:36:23;;;;;;;28.85;19.10;;;;;;;11.24;71.54;101922.20;1832585;78;21101;-69
2021/10/30 01:38:50;;;;;;;35.35;21.85;;;;;;;11.24;71.59;101924.87;1816988;76;21007;-69
2021/10/30 01:41:20;;;;;;;35.15;21.48;;;;;;;11.26;71.62;101921.47;1811642;78;21181;-69
2021/10/30 01:43:46;;;;;;;34.75;22.40;;;;;;;11.25;71.60;101921.15;1824429;76;20975;-69
2021/10/30 01:46:13;;;;;;;33.10;21.70;;;;;;;11.25;71.62;101921.99;1816491;76;21124;-68
2021/10/30 01:48:43;;;;;;;32.10;21.30;;;;;;;11.26;71.66;101923.61;1815038;78;21043;-67
2021/10/30 01:51:10;;;;;;;37.00;23.20;;;;;;;11.26;71.68;101922.27;1822773;76;21145;-68
2021/10/30 01:53:38;;;;;;;37.90;23.98;;;;;;;11.26;71.69;101919.60;1833973;78;21165;-68
2021/10/30 01:56:06;;;;;;;27.67;18.42;;;;;;;11.26;71.71;101928.16;1823571;76;21041;-68
2021/10/30 01:58:34;;;;;;;31.02;19.45;;;;;;;11.29;71.69;101931.71;1829644;78;21014;-68
2021/10/30 02:01:01;;;;;;;27.45;17.77;;;;;;;11.27;71.60;101921.22;1817951;78;21033;-67
2021/10/30 02:03:30;;;;;;;31.40;20.52;;;;;;;11.26;71.61;101926.81;1832529;76;21414;-69
2021/10/30 02:05:57;;;;;;;31.75;19.73;;;;;;;11.21;71.62;101927.48;1822908;76;21163;-68
2021/10/30 02:08:24;;;;;;;36.00;20.25;;;;;;;11.21;71.74;101926.67;1831951;76;21018;-68
2021/10/30 02:10:51;;;;;;;29.05;19.98;;;;;;;11.22;71.79;101933.64;1823940;76;20998;-67
2021/10/30 02:13:19;;;;;;;28.73;19.52;;;;;;;11.24;71.80;101930.22;1814834;77;20976;-69
2021/10/30 02:15:47;;;;;;;30.27;21.00;;;;;;;11.28;71.83;101923.38;1834859;76;21097;-68
2021/10/30 02:18:17;;;;;;;30.97;20.40;;;;;;;11.26;71.75;101923.61;1812572;76;21061;-68
2021/10/30 02:20:44;;;;;;;30.15;19.98;;;;;;;11.25;71.78;101923.33;1824981;76;20990;-68
2021/10/30 02:23:12;;;;;;;27.20;18.37;;;;;;;11.27;71.81;101924.42;1818433;76;21505;-67
2021/10/30 02:25:39;;;;;;;29.02;18.35;;;;;;;11.28;71.83;101923.38;1821072;76;21007;-68
2021/10/30 02:28:05;;;;;;;31.90;20.97;;;;;;;11.30;71.83;101925.83;1822120;76;20963;-67
2021/10/30 02:30:33;;;;;;;33.00;21.20;;;;;;;11.31;71.78;101924.78;1820477;78;21876;-68
2021/10/30 02:33:00;;;;;;;33.75;19.82;;;;;;;11.33;71.77;101926.19;1811450;76;21955;-67
2021/10/30 02:35:27;;;;;;;34.23;20.90;;;;;;;11.33;71.71;101932.88;1830161;78;21086;-68
2021/10/30 02:37:54;;;;;;;29.37;19.15;;;;;;;11.33;71.69;101931.55;1825608;76;21104;-68
2021/10/30 02:40:21;;;;;;;29.82;19.60;;;;;;;11.35;71.66;101936.65;1802461;76;20999;-70
2021/10/30 02:42:47;;;;;;;29.70;19.32;;;;;;;11.30;71.55;101940.02;1810974;78;21967;-67
2021/10/30 02:45:15;;;;;;;28.95;18.98;;;;;;;11.25;71.57;101938.03;1822824;76;20994;-68
2021/10/30 02:47:44;;;;;;;29.90;19.70;;;;;;;11.24;71.61;101939.59;1820890;78;22041;-68
2021/10/30 02:50:11;;;;;;;30.82;19.98;;;;;;;11.22;71.60;101947.85;1822319;76;21587;-67
2021/10/30 02:52:40;;;;;;;35.33;22.42;;;;;;;11.23;71.65;101948.66;1833081;78;21045;-68
2021/10/30 02:55:09;;;;;;;35.38;22.75;;;;;;;11.24;71.64;101953.77;1811530;76;21097;-68
2021/10/30 02:57:36;;;;;;;27.62;18.85;;;;;;;11.26;71.61;101950.89;1806476;78;21057;-68
2021/10/30 03:00:06;;;;;;;25.88;16.77;;;;;;;11.27;71.58;101952.50;1822468;77;20961;-68
2021/10/30 03:02:33;;;;;;;28.65;18.17;;;;;;;11.28;71.48;101952.27;1825456;77;21010;-68
2021/10/30 03:05:01;;;;;;;29.10;18.70;;;;;;;11.22;71.43;101956.37;1815808;78;21024;-68
2021/10/30 03:07:28;;;;;;;31.55;21.48;;;;;;;11.20;71.46;101962.48;1817585;78;21142;-68
2021/10/30 03:09:55;;;;;;;30.88;20.40;;;;;;;11.25;71.42;101964.78;1829866;77;20932;-68
2021/10/30 03:12:22;;;;;;;31.60;19.75;;;;;;;11.30;71.35;101956.59;1840546;75;21046;-69
2021/10/30 03:14:49;;;;;;;32.30;20.00;;;;;;;11.35;71.26;101959.39;1820867;77;21030;-68
2021/10/30 03:17:16;;;;;;;33.78;20.23;;;;;;;11.35;71.16;101957.55;1835662;77;20960;-68
2021/10/30 03:19:42;;;;;;;32.70;20.43;;;;;;;11.35;71.08;101962.91;1837485;77;21119;-69
2021/10/30 03:22:09;;;;;;;32.55;20.17;;;;;;;11.37;71.05;101959.46;1812422;78;20991;-69
2021/10/30 03:24:37;;;;;;;30.70;17.92;;;;;;;11.37;71.03;101962.13;1845831;77;20995;-69
2021/10/30 03:27:05;;;;;;;29.82;17.98;;;;;;;11.37;70.96;101959.98;1850931;76;21506;-68
2021/10/30 03:29:33;;;;;;;29.52;19.30;;;;;;;11.35;70.95;101958.89;1855549;77;20975;-69
2021/10/30 03:32:00;;;;;;;23.22;16.00;;;;;;;11.35;70.93;101958.89;1840479;76;21952;-69
2021/10/30 03:34:27;;;;;;;26.30;16.87;;;;;;;11.34;70.90;101960.44;1823518;78;21030;-68
2021/10/30 03:36:54;;;;;;;26.68;17.60;;;;;;;11.28;70.88;101964.30;1848537;77;21109;-67
2021/10/30 03:39:21;;;;;;;26.57;17.65;;;;;;;11.22;70.92;101959.89;1800159;78;21042;-69
2021/10/30 03:41:48;;;;;;;28.00;15.32;;;;;;;11.18;71.00;101957.88;1822876;77;21000;-69
2021/10/30 03:44:15;;;;;;;30.25;18.62;;;;;;;11.17;71.11;101960.27;1815363;78;21123;-69
2021/10/30 03:46:43;;;;;;;29.40;19.02;;;;;;;11.16;71.07;101961.31;1854817;77;20975;-69
2021/10/30 03:49:09;;;;;;;29.55;18.05;;;;;;;11.17;71.11;101962.94;1817386;77;21054;-68
2021/10/30 03:51:36;;;;;;;30.68;18.87;;;;;;;11.19;71.14;101964.88;1820984;77;20972;-68
2021/10/30 03:54:03;;;;;;;26.42;16.50;;;;;;;11.19;71.07;101967.55;1804419;76;21069;-68
2021/10/30 03:56:29;;;;;;;23.55;16.20;;;;;;;11.18;71.08;101961.36;1830578;76;21813;-67
2021/10/30 03:58:56;;;;;;;22.48;14.03;;;;;;;11.19;71.07;101966.21;1825848;76;21051;-68
2021/10/30 04:01:23;;;;;;;26.05;15.72;;;;;;;11.19;71.00;101968.89;1815380;77;21108;-68
2021/10/30 04:03:49;;;;;;;26.62;16.10;;;;;;;11.15;71.01;101968.50;1818507;77;21023;-68
2021/10/30 04:06:16;;;;;;;23.95;14.55;;;;;;;11.14;71.09;101962.05;1818752;78;21629;-69
2021/10/30 04:08:44;;;;;;;22.60;14.58;;;;;;;11.15;71.10;101965.01;1850009;75;22026;-69
2021/10/30 04:11:11;;;;;;;26.50;15.90;;;;;;;11.16;71.09;101968.00;1820162;77;21446;-69
2021/10/30 04:13:38;;;;;;;19.55;13.13;;;;;;;11.14;71.06;101965.53;1803652;77;21532;-70
2021/10/30 04:16:05;;;;;;;27.77;16.50;;;;;;;11.15;71.07;101962.34;1830546;76;21089;-68
2021/10/30 04:18:32;;;;;;;26.37;14.93;;;;;;;11.14;71.10;101964.20;1829459;76;22185;-68
2021/10/30 04:21:00;;;;;;;29.63;14.28;;;;;;;11.16;71.05;101969.34;1826626;76;22033;-68
2021/10/30 04:23:26;;;;;;;20.45;11.55;;;;;;;11.13;71.01;101967.92;1828242;76;22244;-68
2021/10/30 04:25:55;;;;;;;23.55;12.33;;;;;;;11.12;70.94;101966.80;1829019;76;20955;-69
2021/10/30 04:28:21;;;;;;;20.85;12.53;;;;;;;11.11;70.87;101965.17;1836886;78;21536;-69
2021/10/30 04:30:49;;;;;;;26.55;13.50;;;;;;;11.10;70.78;101960.35;1813934;76;21065;-69
2021/10/30 04:33:17;;;;;;;17.98;11.78;;;;;;;11.06;70.72;101961.04;1819888;78;21189;-69
2021/10/30 04:35:47;;;;;;;20.32;12.05;;;;;;;11.03;70.74;101959.10;1824760;76;21022;-69
2021/10/30 04:38:13;;;;;;;21.35;12.78;;;;;;;11.04;70.76;101959.39;1815353;76;21407;-69
2021/10/30 04:40:40;;;;;;;23.98;13.65;;;;;;;11.04;70.74;101954.56;1808452;78;21026;-69
2021/10/30 04:43:07;;;;;;;22.45;13.38;;;;;;;11.03;70.74;101956.95;1829339;76;21058;-69
2021/10/30 04:45:37;;;;;;;21.15;12.63;;;;;;;11.03;70.74;101964.45;1830449;78;22355;-69
2021/10/30 04:48:05;;;;;;;24.23;11.65;;;;;;;11.01;70.71;101967.05;1829240;77;21034;-68
2021/10/30 04:50:31;;;;;;;19.87;10.35;;;;;;;10.98;70.59;101969.64;1834028;78;21026;-69
2021/10/30 04:52:58;;;;;;;19.98;11.03;;;;;;;10.87;70.53;101970.93;1820786;76;21022;-69
2021/10/30 04:55:24;;;;;;;24.10;11.65;;;;;;;10.78;70.56;101961.05;1816477;78;20979;-69
2021/10/30 04:57:51;;;;;;;18.65;11.25;;;;;;;10.72;70.67;101963.28;1827341;76;21160;-68
2021/10/30 05:00:18;;;;;;;16.60;10.58;;;;;;;10.68;70.68;101963.44;1828489;78;21490;-69
2021/10/30 05:02:48;;;;;;;19.45;11.40;;;;;;;10.65;70.76;101966.55;1820327;77;21038;-69
2021/10/30 05:05:14;;;;;;;16.60;9.78;;;;;;;10.64;70.84;101968.94;1814936;77;20940;-69
2021/10/30 05:07:44;;;;;;;18.82;10.08;;;;;;;10.65;70.91;101965.21;1809527;77;21035;-69
2021/10/30 05:10:10;;;;;;;22.42;12.23;;;;;;;10.64;71.01;101972.42;1820066;77;21206;-68
2021/10/30 05:12:37;;;;;;;21.57;12.78;;;;;;;10.64;71.01;101972.42;1840432;75;21105;-68
2021/10/30 05:15:05;;;;;;;22.05;13.05;;;;;;;10.63;71.00;101967.28;1826156;76;21553;-70
2021/10/30 05:17:32;;;;;;;16.40;11.35;;;;;;;10.62;70.97;101973.67;1832960;76;21604;-69
2021/10/30 05:19:58;;;;;;;23.27;11.57;;;;;;;10.58;70.87;101975.16;1833966;76;21065;-68
2021/10/30 05:22:25;;;;;;;23.87;12.07;;;;;;;10.51;70.92;101977.91;1821377;76;21259;-69
2021/10/30 05:24:51;;;;;;;17.10;11.30;;;;;;;10.50;70.98;101978.95;1822686;76;20995;-69
2021/10/30 05:27:18;;;;;;;21.20;11.95;;;;;;;10.45;71.01;101985.46;1829617;76;22642;-69
2021/10/30 05:29:45;;;;;;;23.83;11.03;;;;;;;10.46;71.06;101978.58;1821759;77;21117;-69
2021/10/30 05:32:11;;;;;;;25.88;12.35;;;;;;;10.48;71.05;101985.83;1820402;76;21018;-69
2021/10/30 05:34:40;;;;;;;21.68;12.05;;;;;;;10.44;70.97;101990.52;1825478;78;21151;-68
2021/10/30 05:37:12;;;;;;;18.27;10.88;;;;;;;10.40;71.05;101996.82;1769120;76;20995;-68
2021/10/30 05:39:43;;;;;;;20.57;12.28;;;;;;;10.46;71.06;101994.61;1816616;78;21502;-69
2021/10/30 05:42:13;;;;;;;23.57;12.88;;;;;;;10.45;70.96;101991.61;1809968;78;21505;-67
2021/10/30 05:44:40;;;;;;;18.85;11.25;;;;;;;10.43;70.95;101992.37;1830181;76;21042;-68
2021/10/30 05:47:08;;;;;;;15.83;10.05;;;;;;;10.44;70.96;102002.02;1825538;78;21835;-68
2021/10/30 05:49:38;;;;;;;20.35;11.40;;;;;;;10.48;70.96;101999.72;1817041;76;20991;-68
2021/10/30 05:52:07;;;;;;;20.23;11.83;;;;;;;10.50;70.94;101999.80;1815691;78;21026;-68
2021/10/30 05:54:35;;;;;;;23.55;13.22;;;;;;;10.52;70.89;102003.05;1820369;76;20978;-69
2021/10/30 05:57:02;;;;;;;23.60;12.98;;;;;;;10.52;70.83;102000.90;1814286;78;20983;-70
2021/10/30 05:59:30;;;;;;;19.12;12.55;;;;;;;10.52;70.81;102004.38;1817599;76;21170;-70
2021/10/30 06:01:57;;;;;;;26.20;13.25;;;;;;;10.55;70.78;102009.81;1820176;78;21021;-70
2021/10/30 06:04:24;;;;;;;22.15;11.45;;;;;;;10.58;70.71;102017.91;1811894;76;20986;-68
2021/10/30 06:06:52;;;;;;;21.80;12.33;;;;;;;10.62;70.68;102005.73;1815761;77;21059;-68
2021/10/30 06:09:19;;;;;;;20.27;12.10;;;;;;;10.65;70.64;102005.30;1816666;77;21565;-68
2021/10/30 06:11:48;;;;;;;22.80;12.43;;;;;;;10.67;70.56;102012.05;1819418;77;21098;-70
2021/10/30 06:14:15;;;;;;;19.62;11.40;;;;;;;10.69;70.43;102015.30;1819502;76;20995;-69
2021/10/30 06:16:42;;;;;;;20.60;11.30;;;;;;;10.70;70.43;102013.47;1827584;76;22310;-69
2021/10/30 06:19:09;;;;;;;22.60;12.28;;;;;;;10.70;70.36;102009.47;1812429;76;21135;-68
2021/10/30 06:21:36;;;;;;;18.80;12.37;;;;;;;10.68;70.35;102012.87;1812579;76;21041;-68
2021/10/30 06:24:03;;;;;;;21.90;13.10;;;;;;;10.67;70.39;102014.73;1812788;76;21127;-71
2021/10/30 06:26:30;;;;;;;24.70;13.80;;;;;;;10.71;70.50;102019.92;1816198;76;21599;-70
2021/10/30 06:28:57;;;;;;;19.70;13.25;;;;;;;10.76;70.47;102024.09;1808090;78;21471;-69
2021/10/30 06:31:24;;;;;;;16.90;11.73;;;;;;;10.78;70.46;102019.33;1813917;76;21054;-67
2021/10/30 06:33:51;;;;;;;23.40;13.80;;;;;;;10.83;70.39;102022.69;1816340;78;21051;-69
2021/10/30 06:36:18;;;;;;;18.07;11.70;;;;;;;10.85;70.26;102020.59;1816425;76;21753;-69
2021/10/30 06:38:45;;;;;;;17.95;11.88;;;;;;;10.86;70.14;102023.58;1822834;76;21073;-67
2021/10/30 06:41:14;;;;;;;19.70;11.38;;;;;;;10.87;70.05;102030.55;1828116;78;21007;-69
2021/10/30 06:43:41;;;;;;;16.32;11.10;;;;;;;10.89;70.01;102019.62;1837911;75;21509;-69
2021/10/30 06:46:08;;;;;;;17.25;12.43;;;;;;;10.90;69.94;102024.76;1813743;76;21556;-69
2021/10/30 06:48:40;;;;;;;17.12;12.10;;;;;;;10.88;69.87;102026.02;1809595;78;21538;-70
2021/10/30 06:51:18;;;;;;;20.60;13.43;;;;;;;10.89;69.87;102020.95;1819287;76;21128;-70
2021/10/30 06:53:55;;;;;;;21.10;12.78;;;;;;;10.91;69.83;102016.22;1777919;79;21432;-70
2021/10/30 06:56:36;;;;;;;18.32;11.05;;;;;;;10.95;69.74;102020.88;1813790;76;21028;-70
2021/10/30 06:59:04;;;;;;;18.07;11.60;;;;;;;10.96;69.74;102015.04;1809361;76;21610;-68
2021/10/30 07:01:33;;;;;;;20.57;12.63;;;;;;;10.97;69.59;102019.34;1819550;78;21131;-68
2021/10/30 07:04:05;;;;;;;18.20;11.75;;;;;;;10.96;69.40;102015.04;1816319;76;21013;-69
2021/10/30 07:06:33;;;;;;;;;;;;;;;10.96;69.37;102020.39;1822799;76;22363;-68
2021/10/30 07:09:00;;;;;;;16.07;10.65;;;;;;;10.99;69.31;102020.75;1817798;76;20232;-69
2021/10/30 07:11:32;;;;;;;15.75;10.70;;;;;;;11.02;69.31;102021.64;1814547;76;21054;-69
2021/10/30 07:13:59;;;;;;;19.20;12.00;;;;;;;11.04;69.20;102018.73;1817435;76;21101;-69
2021/10/30 07:16:26;;;;;;;18.95;13.35;;;;;;;11.04;69.12;102026.75;1816108;76;21556;-68
2021/10/30 07:18:54;;;;;;;16.80;13.03;;;;;;;11.04;69.03;102026.23;1822453;76;21018;-68
2021/10/30 07:21:20;;;;;;;18.50;12.37;;;;;;;11.07;69.01;102024.16;1832062;76;21002;-69
2021/10/30 07:23:47;;;;;;;18.45;11.85;;;;;;;11.08;68.95;102024.45;1815856;76;21540;-69
2021/10/30 07:26:14;;;;;;;17.98;14.47;;;;;;;11.08;68.88;102027.13;1808089;76;21042;-69
2021/10/30 07:28:41;;;;;;;17.12;12.65;;;;;;;11.07;68.80;102038.87;1819878;76;21011;-69
2021/10/30 07:31:14;;;;;;;20.10;14.23;;;;;;;11.06;68.71;102039.92;1816883;78;21005;-70
2021/10/30 07:33:43;;;;;;;18.35;13.38;;;;;;;11.03;68.65;102035.30;1838605;75;21600;-70
2021/10/30 07:36:11;;;;;;;17.90;13.35;;;;;;;11.01;68.66;102040.05;1774723;79;21050;-69
2021/10/30 07:38:38;;;;;;;21.57;15.20;;;;;;;11.04;68.53;102035.59;1836110;76;21449;-69
2021/10/30 07:41:06;;;;;;;22.20;14.98;;;;;;;10.98;68.45;102037.81;1843715;77;21021;-67
2021/10/30 07:43:34;;;;;;;21.15;14.65;;;;;;;10.97;68.53;102034.05;1838517;76;21065;-68
2021/10/30 07:46:01;;;;;;;21.30;14.65;;;;;;;10.99;68.57;102031.45;1834656;77;21401;-68
2021/10/30 07:48:28;;;;;;;22.60;15.95;;;;;;;11.03;68.55;102035.30;1809720;77;21088;-68
2021/10/30 07:50:57;;;;;;;22.80;15.23;;;;;;;11.09;68.54;102044.30;1810214;78;21927;-69
2021/10/30 07:53:24;;;;;;;23.27;16.42;;;;;;;11.13;68.44;102040.13;1818294;77;21555;-68
2021/10/30 07:55:51;;;;;;;22.32;16.10;;;;;;;11.17;68.37;102033.28;1840106;75;21101;-68
2021/10/30 07:58:18;;;;;;;18.25;14.40;;;;;;;11.20;68.12;102038.70;1841866;77;20998;-76
2021/10/30 08:00:44;;;;;;;17.92;14.05;;;;;;;11.21;67.92;102043.00;1839263;75;21105;-68
2021/10/30 08:03:11;;;;;;;22.07;15.23;;;;;;;11.16;67.83;102049.04;1839463;75;21042;-68
2021/10/30 08:05:38;;;;;;;20.23;14.55;;;;;;;11.16;67.84;102046.36;1819322;78;21075;-68
2021/10/30 08:08:06;;;;;;;21.02;15.45;;;;;;;11.19;67.86;102046.44;1800842;77;21121;-68
2021/10/30 08:10:33;;;;;;;19.87;15.63;;;;;;;11.19;67.96;102048.59;1840987;75;21057;-69
2021/10/30 08:13:00;;;;;;;20.43;14.68;;;;;;;11.22;67.81;102047.30;1835994;75;21128;-69
2021/10/30 08:15:28;;;;;;;25.17;17.10;;;;;;;11.21;67.73;102053.70;1827023;77;21125;-68
2021/10/30 08:17:56;;;;;;;21.75;15.18;;;;;;;11.18;67.57;102048.80;1809970;77;21041;-68
2021/10/30 08:20:23;;;;;;;19.85;15.90;;;;;;;11.14;67.64;102053.78;1788306;78;21035;-68
2021/10/30 08:22:49;;;;;;;18.80;15.98;;;;;;;11.13;67.66;102056.70;1801799;79;21520;-69
2021/10/30 08:25:16;;;;;;;17.85;14.25;;;;;;;11.15;67.72;102055.94;1831126;76;21074;-68
2021/10/30 08:27:42;;;;;;;18.55;16.15;;;;;;;11.19;67.72;102054.47;1819584;76;21749;-69
2021/10/30 08:30:11;;;;;;;16.67;13.58;;;;;;;11.23;67.71;102055.64;1827615;78;21496;-69
2021/10/30 08:32:37;;;;;;;15.85;12.80;;;;;;;11.26;67.58;102052.52;1824376;76;21034;-68
2021/10/30 08:35:06;;;;;;;17.30;13.60;;;;;;;11.30;67.52;102051.02;1819976;78;21418;-69
2021/10/30 08:37:32;;;;;;;19.67;14.60;;;;;;;11.32;67.41;102050.29;1821726;76;21060;-69
2021/10/30 08:40:01;;;;;;;15.25;12.30;;;;;;;11.34;67.26;102050.86;1818438;76;22318;-69
2021/10/30 08:42:28;;;;;;;16.17;12.85;;;;;;;11.30;67.06;102055.04;1836801;78;21670;-69
2021/10/30 08:44:55;;;;;;;21.85;15.58;;;;;;;11.32;67.00;102050.78;1834425;76;21033;-69
2021/10/30 08:47:23;;;;;;;17.00;13.43;;;;;;;11.29;66.90;102049.41;1836926;76;21037;-68
2021/10/30 08:49:54;;;;;;;18.90;15.35;;;;;;;11.29;66.92;102056.09;1856268;75;21284;-68
2021/10/30 08:52:21;;;;;;;18.55;15.28;;;;;;;11.28;66.88;102049.08;1823579;78;21851;-69
2021/10/30 08:54:48;;;;;;;17.23;14.50;;;;;;;11.28;66.88;102048.56;1857073;77;20992;-69
2021/10/30 08:57:15;;;;;;;17.67;14.07;;;;;;;11.29;66.81;102044.05;1820708;77;20991;-69
2021/10/30 08:59:44;;;;;;;18.25;14.73;;;;;;;11.22;66.66;102053.50;1818223;78;21007;-69
2021/10/30 09:02:34;;;;;;;18.98;14.18;;;;;;;11.10;66.78;102051.27;1798163;78;20998;-69
2021/10/30 09:05:16;;;;;;;16.90;13.60;;;;;;;11.07;66.96;102048.23;1829239;76;21847;-68
2021/10/30 09:07:44;;;;;;;20.65;16.80;;;;;;;11.06;67.17;102047.94;1851889;75;20986;-68
2021/10/30 09:10:29;;;;;;;20.15;15.53;;;;;;;11.15;67.10;102045.23;1840077;75;21030;-68
2021/10/30 09:12:59;;;;;;;17.15;14.18;;;;;;;11.21;67.02;102047.83;1817090;77;21541;-68
2021/10/30 09:15:34;;;;;;;16.27;12.87;;;;;;;11.29;67.01;102049.41;1803215;77;21644;-68
2021/10/30 09:18:03;;;;;;;19.65;16.37;;;;;;;11.36;66.97;102049.31;1812250;77;21804;-68
2021/10/30 09:20:36;;;;;;;20.00;15.40;;;;;;;11.42;66.83;102045.22;1811762;78;21045;-69
2021/10/30 09:23:08;;;;;;;17.77;14.95;;;;;;;11.47;66.67;102045.87;1832974;76;21111;-69
2021/10/30 09:25:38;;;;;;;16.30;14.07;;;;;;;11.49;66.53;102041.93;1842240;75;21035;-69
2021/10/30 09:28:04;;;;;;;18.00;14.85;;;;;;;11.53;66.40;102048.98;1819060;77;21003;-68
2021/10/30 09:30:36;;;;;;;16.00;13.88;;;;;;;11.54;66.26;102047.92;1788481;77;21090;-69
2021/10/30 09:33:06;;;;;;;15.83;13.53;;;;;;;11.47;66.13;102049.36;1803398;77;20995;-69
2021/10/30 09:35:41;;;;;;;20.08;17.10;;;;;;;11.43;66.21;102049.52;1822851;78;20986;-69
2021/10/30 09:38:32;;;;;;;18.70;15.55;;;;;;;11.44;66.40;102042.30;1843969;75;21045;-69
2021/10/30 09:41:01;;;;;;;19.00;15.13;;;;;;;11.49;66.52;102039.25;1807843;79;21031;-68
2021/10/30 09:43:28;;;;;;;15.98;12.23;;;;;;;11.56;66.49;102031.66;1821693;77;21066;-68
2021/10/30 09:46:05;;;;;;;16.65;13.98;;;;;;;11.61;66.46;102029.10;1831672;77;21528;-67
2021/10/30 09:48:33;;;;;;;13.90;10.97;;;;;;;11.64;66.44;102021.95;1799849;78;22161;-68
2021/10/30 09:51:02;;;;;;;12.50;10.90;;;;;;;11.65;66.45;102026.28;1785711;78;21621;-68
2021/10/30 09:53:43;;;;;;;12.40;9.60;;;;;;;11.65;66.46;102023.61;1794117;79;21023;-69
2021/10/30 09:56:09;;;;;;;10.13;7.65;;;;;;;11.62;66.45;102020.86;1834727;75;21144;-68
2021/10/30 09:58:44;;;;;;;9.90;7.85;;;;;;;11.54;66.57;102022.50;1841114;75;21065;-68
2021/10/30 10:01:16;;;;;;;12.60;9.68;;;;;;;11.55;66.71;102024.16;1842676;76;21217;-69
2021/10/30 10:03:48;;;;;;;11.63;9.50;;;;;;;11.60;66.84;102026.14;1809320;77;21065;-68
2021/10/30 10:06:18;;;;;;;14.68;12.33;;;;;;;11.70;66.87;102018.38;1810590;77;21458;-69
2021/10/30 10:08:46;;;;;;;16.83;12.67;;;;;;;11.76;66.74;102017.46;1845948;75;21126;-69
2021/10/30 10:11:16;;;;;;;12.53;11.12;;;;;;;11.78;66.63;102017.22;1813962;77;21304;-69
2021/10/30 10:13:49;;;;;;;12.43;10.45;;;;;;;11.82;66.61;102018.42;1846389;76;21034;-68
2021/10/30 10:16:21;;;;;;;13.78;11.75;;;;;;;11.86;66.47;102012.39;1831998;76;21058;-69
2021/10/30 10:18:56;;;;;;;12.30;10.43;;;;;;;11.91;66.30;102008.52;1853514;75;21010;-70
2021/10/30 10:21:26;;;;;;;12.37;9.68;;;;;;;11.97;66.22;102008.91;1840205;75;22299;-68
2021/10/30 10:23:56;;;;;;;10.77;8.60;;;;;;;12.01;66.17;102003.94;1822592;76;21061;-68
2021/10/30 10:26:33;;;;;;;11.63;8.13;;;;;;;12.03;66.03;102008.52;1830216;76;21508;-69
2021/10/30 10:29:06;;;;;;;10.73;8.53;;;;;;;12.00;65.83;102008.17;1836378;76;21723;-68
2021/10/30 10:31:33;;;;;;;11.83;9.63;;;;;;;11.89;65.89;102014.61;1826098;78;21348;-68
2021/10/30 10:34:14;;;;;;;11.03;8.43;;;;;;;11.87;65.97;102013.20;1803937;78;21206;-69
2021/10/30 10:36:42;;;;;;;11.10;8.80;;;;;;;11.86;65.91;102008.38;1836081;78;21010;-68
2021/10/30 10:39:12;;;;;;;11.15;7.97;;;;;;;11.89;65.91;102010.59;1834750;76;21163;-68
2021/10/30 10:41:46;;;;;;;12.73;10.08;;;;;;;11.93;65.90;102013.63;1834918;78;21125;-68
2021/10/30 10:44:31;;;;;;;11.15;8.83;;;;;;;11.97;65.87;102008.91;1820482;76;21112;-69
2021/10/30 10:46:59;;;;;;;11.65;8.95;;;;;;;12.01;65.72;102006.61;1822287;78;21559;-68
2021/10/30 10:52:17;;;;;;;12.37;9.35;;;;;;;11.91;65.63;102001.83;1830018;76;21489;-69
2021/10/30 10:54:59;;;;;;;12.37;9.65;;;;;;;11.81;65.79;102012.22;1827498;76;21060;-69
2021/10/30 10:57:28;;;;;;;10.32;7.83;;;;;;;11.74;65.88;102014.19;1833464;76;21053;-69
2021/10/30 11:00:21;;;;;;;11.33;8.90;;;;;;;11.58;66.05;102012.16;1829518;76;21118;-69
2021/10/30 11:02:53;;;;;;;11.97;8.55;;;;;;;11.46;66.29;102007.59;1818803;76;28668;-73
2021/10/30 11:05:36;;;;;;;12.65;9.55;;;;;;;11.40;66.57;102004.48;1819945;77;21030;-68
2021/10/30 11:08:14;;;;;;;11.65;8.30;;;;;;;11.44;66.71;102001.64;1818013;76;20967;-68
2021/10/30 11:10:43;;;;;;;13.03;9.33;;;;;;;11.47;66.72;102002.53;1824103;78;21453;-68
2021/10/30 11:13:14;;;;;;;11.45;8.25;;;;;;;11.49;66.71;101999.64;1828495;76;21066;-70
2021/10/30 11:15:52;;;;;;;9.50;6.90;;;;;;;11.43;66.61;101996.01;1821827;78;20947;-69
2021/10/30 11:21:26;;;;;;;12.60;8.95;;;;;;;11.37;66.69;101995.58;1830672;78;21026;-68